createdAt,value
2024-01-25T00:03:57.481Z,32.63
2024-01-25T00:08:59.867Z,27.25
2024-01-25T00:14:02.450Z,18.42
2024-01-25T00:19:04.734Z,18.48
2024-01-25T00:24:07.080Z,21.77
2024-01-25T00:29:09.487Z,17.25
2024-01-25T00:34:12.230Z,15.57
2024-01-25T00:39:14.910Z,16.30
2024-01-25T00:44:17.445Z,15.10
2024-01-25T00:49:20.021Z,14.20
2024-01-25T00:54:22.679Z,17.08
2024-01-25T00:59:25.165Z,18.95
2024-01-25T01:04:28.084Z,15.60
2024-01-25T01:09:36.949Z,25.20
2024-01-25T01:14:39.089Z,39.45
2024-01-25T01:19:41.341Z,26.73
2024-01-25T01:24:43.708Z,27.30
2024-01-25T01:29:49.203Z,26.45
2024-01-25T01:34:51.499Z,23.30
2024-01-25T01:39:57.443Z,26.00
2024-01-25T01:44:59.633Z,23.98
2024-01-25T01:50:03.141Z,28.60
2024-01-25T01:55:06.505Z,32.47
2024-01-25T02:00:12.861Z,30.42
2024-01-25T02:05:15.175Z,28.80
2024-01-25T02:10:18.175Z,39.55
2024-01-25T02:15:21.353Z,22.30
2024-01-25T02:20:27.271Z,28.42
2024-01-25T02:25:29.666Z,27.98
2024-01-25T02:30:35.380Z,25.38
2024-01-25T02:35:39.371Z,26.35
2024-01-25T02:40:41.744Z,26.15
2024-01-25T02:45:44.027Z,31.80
2024-01-25T02:50:46.621Z,25.30
2024-01-25T02:55:49.027Z,34.47
2024-01-25T03:00:56.796Z,25.33
2024-01-25T03:05:59.141Z,17.40
2024-01-25T03:11:01.726Z,16.58
2024-01-25T03:16:04.177Z,14.75
2024-01-25T03:21:06.566Z,13.23
2024-01-25T03:26:08.710Z,15.20
2024-01-25T03:31:11.098Z,13.05
2024-01-25T03:36:16.884Z,12.68
2024-01-25T03:41:19.275Z,13.38
2024-01-25T03:46:21.631Z,8.75
2024-01-25T03:51:25.483Z,16.42
2024-01-25T03:56:28.335Z,14.88
2024-01-25T04:01:32.313Z,12.57
2024-01-25T04:06:34.880Z,12.68
2024-01-25T04:11:39.023Z,14.27
2024-01-25T04:16:42.219Z,19.50
2024-01-25T04:21:44.758Z,26.27
2024-01-25T04:26:47.269Z,22.67
2024-01-25T04:31:50.036Z,32.33
2024-01-25T04:36:52.539Z,51.65
2024-01-25T04:41:54.831Z,22.15
2024-01-25T04:46:57.992Z,33.78
2024-01-25T04:52:00.394Z,36.80
2024-01-25T04:57:03.994Z,29.17
2024-01-25T05:02:06.539Z,64.78
2024-01-25T05:07:09.049Z,59.45
2024-01-25T05:12:11.227Z,66.93
2024-01-25T05:17:14.561Z,46.40
2024-01-25T05:22:17.926Z,36.63
2024-01-25T05:27:20.948Z,31.52
2024-01-25T05:32:24.065Z,30.58
2024-01-25T05:37:26.282Z,32.10
2024-01-25T05:42:30.378Z,37.17
2024-01-25T05:47:34.385Z,38.17
2024-01-25T05:52:38.966Z,39.60
2024-01-25T05:57:41.385Z,37.65
2024-01-25T06:02:44.968Z,44.33
2024-01-25T06:07:47.508Z,42.58
2024-01-25T06:12:50.043Z,51.78
2024-01-25T06:17:52.854Z,47.53
2024-01-25T06:22:55.308Z,71.55
2024-01-25T06:27:58.678Z,82.40
2024-01-25T06:33:01.129Z,58.97
2024-01-25T06:38:03.451Z,59.92
2024-01-25T06:43:05.821Z,53.33
2024-01-25T06:48:10.296Z,47.28
2024-01-25T06:53:12.414Z,52.58
2024-01-25T06:58:14.698Z,60.97
2024-01-25T07:03:17.342Z,50.15
2024-01-25T07:08:19.907Z,50.10
2024-01-25T07:13:22.633Z,56.60
2024-01-25T07:18:26.226Z,45.22
2024-01-25T07:23:28.548Z,56.72
2024-01-25T07:28:30.941Z,56.03
2024-01-25T07:33:33.487Z,50.22
2024-01-25T07:38:35.666Z,60.35
2024-01-25T07:43:37.838Z,52.35
2024-01-25T07:48:40.421Z,56.50
2024-01-25T07:53:43.086Z,60.00
2024-01-25T07:58:45.304Z,66.25
2024-01-25T08:03:47.583Z,72.18
2024-01-25T08:08:50.179Z,54.85
2024-01-25T08:13:52.634Z,43.00
2024-01-25T08:18:55.385Z,43.42
2024-01-25T08:23:58.316Z,33.70
2024-01-25T08:29:00.568Z,34.13
2024-01-25T08:34:03.124Z,31.48
2024-01-25T08:39:06.655Z,28.98
2024-01-25T08:44:08.820Z,33.85
2024-01-25T08:49:13.700Z,26.58
2024-01-25T08:54:16.018Z,27.42
2024-01-25T08:59:18.209Z,27.20
2024-01-25T09:04:22.249Z,27.98
2024-01-25T09:09:26.023Z,28.30
2024-01-25T09:14:28.226Z,34.10
2024-01-25T09:19:30.662Z,28.30
2024-01-25T09:24:33.019Z,23.95
2024-01-25T09:29:35.315Z,30.60
2024-01-25T09:34:41.410Z,33.70
2024-01-25T09:39:44.379Z,27.92
2024-01-25T09:44:46.801Z,22.67
2024-01-25T09:49:49.526Z,20.80
2024-01-25T09:54:55.872Z,24.73
2024-01-25T09:59:58.438Z,20.45
2024-01-25T10:05:00.902Z,18.23
2024-01-25T10:10:03.208Z,16.60
2024-01-25T10:15:06.572Z,15.55
2024-01-25T10:20:12.528Z,11.93
2024-01-25T10:25:18.476Z,14.48
2024-01-25T10:30:21.725Z,10.57
2024-01-25T10:35:27.790Z,9.75
2024-01-25T10:40:30.850Z,9.20
2024-01-25T10:45:33.410Z,8.93
2024-01-25T10:50:36.193Z,15.68
2024-01-25T10:55:38.785Z,12.88
2024-01-25T11:00:41.394Z,12.93
2024-01-25T11:05:44.302Z,14.95
2024-01-25T11:10:52.330Z,13.30
2024-01-25T11:15:55.005Z,9.85
2024-01-25T11:21:02.057Z,9.43
2024-01-25T11:26:04.442Z,15.32
2024-01-25T11:31:06.849Z,13.15
2024-01-25T11:36:09.241Z,13.23
2024-01-25T11:41:11.668Z,13.15
2024-01-25T11:46:15.551Z,12.70
2024-01-25T11:51:17.796Z,9.30
2024-01-25T11:56:24.571Z,11.07
2024-01-25T12:01:27.700Z,10.27
2024-01-25T12:06:31.477Z,12.35
2024-01-25T12:11:33.720Z,12.68
2024-01-25T12:16:38.305Z,13.70
2024-01-25T12:21:45.588Z,16.02
2024-01-25T12:26:48.810Z,11.35
2024-01-25T12:31:51.022Z,10.48
2024-01-25T12:36:54.021Z,10.48
2024-01-25T12:41:56.511Z,8.73
2024-01-25T12:47:02.902Z,9.82
2024-01-25T12:52:05.738Z,11.38
2024-01-25T12:57:09.417Z,13.05
2024-01-25T13:02:13.683Z,17.40
2024-01-25T13:07:16.315Z,11.90
2024-01-25T13:12:18.570Z,15.43
2024-01-25T13:17:22.795Z,12.55
2024-01-25T13:22:25.951Z,19.73
2024-01-25T13:27:28.650Z,18.38
2024-01-25T13:32:30.970Z,17.90
2024-01-25T13:37:33.402Z,17.52
2024-01-25T13:42:35.715Z,23.70
2024-01-25T13:47:38.118Z,16.25
2024-01-25T13:52:40.375Z,16.85
2024-01-25T13:57:42.630Z,18.38
2024-01-25T14:02:46.627Z,15.88
2024-01-25T14:07:48.907Z,34.75
2024-01-25T14:12:52.707Z,24.80
2024-01-25T14:17:55.208Z,17.20
2024-01-25T14:22:57.614Z,13.38
2024-01-25T14:28:00.220Z,13.68
2024-01-25T14:33:05.125Z,19.00
2024-01-25T14:38:08.030Z,9.27
2024-01-25T14:43:10.226Z,16.05
2024-01-25T14:48:13.191Z,12.75
2024-01-25T14:53:15.621Z,18.70
2024-01-25T14:58:23.750Z,15.45
2024-01-25T15:03:29.192Z,20.92
2024-01-25T15:08:31.636Z,29.70
2024-01-25T15:13:34.136Z,29.15
2024-01-25T15:18:36.592Z,30.42
2024-01-25T15:23:38.901Z,30.92
2024-01-25T15:28:41.113Z,35.83
2024-01-25T15:33:43.530Z,26.40
2024-01-25T15:38:45.879Z,34.75
2024-01-25T15:43:48.069Z,38.47
2024-01-25T15:48:52.594Z,47.72
2024-01-25T15:53:54.868Z,46.60
2024-01-25T15:58:57.048Z,40.08
2024-01-25T16:03:59.325Z,31.70
2024-01-25T16:09:05.146Z,27.92
2024-01-25T16:14:07.382Z,33.75
2024-01-25T16:19:09.700Z,32.65
2024-01-25T16:24:12.002Z,29.65
2024-01-25T16:29:14.930Z,72.32
2024-01-25T16:34:17.357Z,45.20
2024-01-25T16:39:19.908Z,55.55
2024-01-25T16:44:22.470Z,47.60
2024-01-25T16:49:25.041Z,49.33
2024-01-25T16:54:27.497Z,62.22
2024-01-25T16:59:31.433Z,62.30
2024-01-25T17:04:33.711Z,65.53
2024-01-25T17:09:35.909Z,63.35
2024-01-25T17:14:38.611Z,72.57
2024-01-25T17:19:41.429Z,76.43
2024-01-25T17:24:43.862Z,63.53
2024-01-25T17:29:49.565Z,70.20
2024-01-25T17:35:17.896Z,65.68
2024-01-25T17:40:18.400Z,59.95
2024-01-25T17:45:20.912Z,75.70
2024-01-25T17:50:43.986Z,71.00
2024-01-25T17:55:49.363Z,72.97
2024-01-25T18:00:51.921Z,61.38
2024-01-25T18:05:55.487Z,49.05
2024-01-25T18:11:00.858Z,50.92
2024-01-25T18:16:13.139Z,55.08
2024-01-25T18:21:15.581Z,58.60
2024-01-25T18:26:18.030Z,55.55
2024-01-25T18:31:20.542Z,59.42
2024-01-25T18:36:22.846Z,55.55
2024-01-25T18:41:25.328Z,45.03
2024-01-25T18:46:27.728Z,46.58
2024-01-25T18:51:30.219Z,45.22
2024-01-25T18:56:32.767Z,65.25
2024-01-25T19:01:35.716Z,57.67
2024-01-25T19:06:39.226Z,53.35
2024-01-25T19:11:41.449Z,53.90
2024-01-25T19:16:45.495Z,58.20
2024-01-25T19:21:48.869Z,63.63
2024-01-25T19:26:51.113Z,71.63
2024-01-25T19:31:54.120Z,69.75
2024-01-25T19:36:56.407Z,93.38
2024-01-25T19:41:58.880Z,100.50
2024-01-25T19:47:01.097Z,99.40
2024-01-25T19:52:05.030Z,97.13
2024-01-25T19:57:07.736Z,81.13
2024-01-25T20:02:10.491Z,83.78
2024-01-25T20:07:13.144Z,83.10
2024-01-25T20:12:15.404Z,76.97
2024-01-25T20:17:19.576Z,96.75
2024-01-25T20:22:21.903Z,115.55
2024-01-25T20:27:24.161Z,101.90
2024-01-25T20:32:28.807Z,124.03
2024-01-25T20:37:31.186Z,103.05
2024-01-25T20:42:33.412Z,103.25
2024-01-25T20:47:35.677Z,79.15
2024-01-25T20:52:37.838Z,70.50
2024-01-25T20:57:39.988Z,39.97
2024-01-25T21:02:42.496Z,33.85
2024-01-25T21:07:45.133Z,31.95
2024-01-25T21:12:47.607Z,33.22
2024-01-25T21:17:49.961Z,55.15
2024-01-25T21:22:52.350Z,30.77
2024-01-25T21:27:55.438Z,44.30
2024-01-25T21:32:57.648Z,42.33
2024-01-25T21:38:00.091Z,38.72
2024-01-25T21:43:02.997Z,30.05
2024-01-25T21:48:10.840Z,24.08
2024-01-25T21:53:13.344Z,37.58
2024-01-25T21:58:15.723Z,38.92
2024-01-25T22:03:18.114Z,40.55
2024-01-25T22:08:20.974Z,38.58
2024-01-25T22:13:23.147Z,36.40
2024-01-25T22:18:25.399Z,40.60
2024-01-25T22:23:28.675Z,37.63
2024-01-25T22:28:30.911Z,31.20
2024-01-25T22:33:33.164Z,35.53
2024-01-25T22:38:35.520Z,31.92
2024-01-25T22:43:40.757Z,29.35
2024-01-25T22:48:43.042Z,36.88
2024-01-25T22:53:45.254Z,30.80
2024-01-25T22:58:48.751Z,34.55
2024-01-25T23:03:58.657Z,29.15
2024-01-25T23:09:01.236Z,33.13
2024-01-25T23:14:06.474Z,29.17
2024-01-25T23:19:22.858Z,10.07
2024-01-25T23:24:27.480Z,9.18
2024-01-25T23:29:30.163Z,9.93
2024-01-25T23:34:34.055Z,18.48
2024-01-25T23:39:36.783Z,23.02
2024-01-25T23:44:39.194Z,16.30
2024-01-25T23:49:45.359Z,14.60
2024-01-25T23:54:47.980Z,13.75
2024-01-25T23:59:50.471Z,13.50
